Time;durP1;ratioP1;P1;durP2;ratioP2;P2;SDS_P1;SDS_P2;PMS_P1;PMS_P2;Temp;Humidity;BMP_temperature;BMP_pressure;BME280_temperature;BME280_humidity;BME280_pressure;Samples;Min_cycle;Max_cycle;Signal;HPM_P1;HPM_P2
2023/03/31 00:01:09;;;;;;;22.67;5.30;;;9.50;99.90;;;;;;4994018;28;20407;-70
2023/03/31 00:03:37;;;;;;;20.60;5.72;;;9.50;99.90;;;;;;4992387;28;20054;-71
2023/03/31 00:06:05;;;;;;;31.83;6.45;;;9.50;99.90;;;;;;4978692;28;20383;-70
2023/03/31 00:08:35;;;;;;;26.83;5.95;;;9.60;99.90;;;;;;5013025;28;20060;-71
2023/03/31 00:11:06;;;;;;;29.38;6.47;;;9.70;99.90;;;;;;4994973;28;20445;-70
2023/03/31 00:13:32;;;;;;;;;;;9.70;99.90;;;;;;4995569;28;20150;-70
2023/03/31 00:16:02;;;;;;;32.58;6.18;;;9.70;99.90;;;;;;4995381;28;19921;-71
2023/03/31 00:18:29;;;;;;;22.27;5.88;;;9.80;99.90;;;;;;4994837;28;20052;-70
2023/03/31 00:21:06;;;;;;;22.63;5.60;;;9.80;99.90;;;;;;4995283;28;20501;-70
2023/03/31 00:23:33;;;;;;;17.92;5.43;;;9.80;99.90;;;;;;5011519;28;20136;-71
2023/03/31 00:25:59;;;;;;;31.48;6.20;;;9.80;99.90;;;;;;4994640;28;20111;-71
2023/03/31 00:28:28;;;;;;;23.70;6.50;;;9.80;99.90;;;;;;4976906;28;20502;-71
2023/03/31 00:31:00;;;;;;;25.42;6.65;;;9.80;99.90;;;;;;4992953;28;20054;-71
2023/03/31 00:33:27;;;;;;;30.85;6.75;;;9.70;99.90;;;;;;4993220;28;20066;-71
2023/03/31 00:35:54;;;;;;;27.40;5.75;;;9.70;99.90;;;;;;4976308;28;20050;-72
2023/03/31 00:38:21;;;;;;;22.13;5.85;;;9.70;99.90;;;;;;4992781;28;20046;-71
2023/03/31 00:40:48;;;;;;;24.25;5.78;;;9.60;99.90;;;;;;4976633;28;20082;-71
2023/03/31 00:43:35;;;;;;;20.83;6.60;;;9.60;99.90;;;;;;4976193;28;20054;-71
2023/03/31 00:46:07;;;;;;;22.77;5.63;;;9.60;99.90;;;;;;4992744;28;20061;-70
2023/03/31 00:48:37;;;;;;;28.17;5.28;;;9.50;99.90;;;;;;4993135;28;20046;-70
2023/03/31 00:51:07;;;;;;;28.40;5.88;;;9.50;99.90;;;;;;4976494;28;20133;-71
2023/03/31 00:53:34;;;;;;;26.42;6.03;;;9.40;99.90;;;;;;4992543;28;20089;-70
2023/03/31 00:56:06;;;;;;;32.47;6.18;;;9.40;99.90;;;;;;4975314;28;20050;-69
2023/03/31 00:58:42;;;;;;;21.75;5.80;;;9.40;99.90;;;;;;4975339;28;20208;-71
2023/03/31 01:01:14;;;;;;;23.92;6.88;;;9.30;99.90;;;;;;4991536;28;20046;-72
2023/03/31 01:03:45;;;;;;;32.25;6.63;;;9.30;99.90;;;;;;4972374;28;20102;-70
2023/03/31 01:06:18;;;;;;;35.35;8.73;;;9.30;99.90;;;;;;4974837;28;20046;-70
2023/03/31 01:08:47;;;;;;;27.40;5.97;;;9.20;99.90;;;;;;4992238;28;20089;-69
2023/03/31 01:11:16;;;;;;;25.73;5.30;;;9.20;99.90;;;;;;4975283;28;20132;-69
2023/03/31 01:13:48;;;;;;;32.13;7.68;;;9.10;99.90;;;;;;4973660;28;20050;-70
2023/03/31 01:16:16;;;;;;;24.17;5.55;;;9.20;99.90;;;;;;4988866;28;20050;-70
2023/03/31 01:18:45;;;;;;;21.83;5.32;;;9.10;99.90;;;;;;4991910;28;20038;-70
2023/03/31 01:21:55;;;;;;;19.75;5.40;;;9.10;99.90;;;;;;4990485;28;20545;-69
2023/03/31 01:24:40;;;;;;;;;;;9.10;99.90;;;;;;4973783;28;20149;-70
2023/03/31 01:27:35;;;;;;;24.17;5.68;;;9.10;99.90;;;;;;4991467;28;20349;-70
2023/03/31 01:30:38;;;;;;;26.08;6.32;;;9.10;99.90;;;;;;4991896;28;20126;-69
2023/03/31 01:33:46;;;;;;;22.48;5.85;;;9.10;99.90;;;;;;4973244;28;20050;-69
2023/03/31 01:36:56;;;;;;;20.63;5.60;;;9.10;99.90;;;;;;4989376;28;20057;-71
2023/03/31 01:40:07;;;;;;;22.77;6.47;;;9.10;99.90;;;;;;4974728;28;20046;-70
2023/03/31 01:42:37;;;;;;;22.92;5.13;;;9.10;99.90;;;;;;4974167;28;20654;-69
2023/03/31 01:45:15;;;;;;;24.92;5.82;;;9.00;99.90;;;;;;4972776;28;20402;-70
2023/03/31 01:47:46;;;;;;;23.50;5.03;;;9.00;99.90;;;;;;4973417;28;20046;-70
2023/03/31 01:50:22;;;;;;;18.58;6.05;;;9.00;99.90;;;;;;4973806;28;20105;-70
2023/03/31 01:52:56;;;;;;;18.90;5.28;;;9.00;99.90;;;;;;4974813;28;20105;-70
2023/03/31 01:55:26;;;;;;;22.45;5.82;;;9.00;99.90;;;;;;4977619;28;20069;-70
2023/03/31 01:58:00;;;;;;;24.83;5.83;;;9.00;99.90;;;;;;4993942;28;20069;-71
2023/03/31 02:00:32;;;;;;;25.70;5.80;;;8.90;99.90;;;;;;4993518;28;20145;-70
2023/03/31 02:03:06;;;;;;;20.83;4.97;;;8.90;99.90;;;;;;5010119;28;20041;-70
2023/03/31 02:05:37;;;;;;;22.05;5.03;;;8.90;99.90;;;;;;4990836;28;20053;-69
2023/03/31 02:08:09;;;;;;;23.33;5.00;;;8.80;99.90;;;;;;4992372;28;20046;-70
2023/03/31 02:10:36;;;;;;;18.63;4.80;;;8.80;99.90;;;;;;4993514;28;20401;-70
2023/03/31 02:13:06;;;;;;;15.30;4.90;;;8.80;99.90;;;;;;5011283;28;20053;-71
2023/03/31 02:15:37;;;;;;;27.58;5.40;;;8.80;99.90;;;;;;5011206;28;20525;-70
2023/03/31 02:18:09;;;;;;;21.73;4.57;;;8.80;99.90;;;;;;5011152;28;20100;-70
2023/03/31 02:20:40;;;;;;;15.13;4.45;;;8.80;99.90;;;;;;5011623;28;20052;-70
2023/03/31 02:23:10;;;;;;;23.45;4.43;;;8.80;99.90;;;;;;5011154;28;20486;-70
2023/03/31 02:25:45;;;;;;;21.00;5.20;;;8.90;99.90;;;;;;4996114;28;20050;-70
2023/03/31 02:28:18;;;;;;;18.85;5.30;;;8.90;99.90;;;;;;4997185;28;20049;-71
2023/03/31 02:30:55;;;;;;;18.85;4.43;;;9.00;99.90;;;;;;4996429;28;20453;-70
2023/03/31 02:33:22;;;;;;;16.48;4.25;;;8.90;99.90;;;;;;5014911;28;20070;-70
2023/03/31 02:35:50;;;;;;;18.50;5.30;;;9.00;99.90;;;;;;5014688;28;20059;-70
2023/03/31 02:38:17;;;;;;;21.75;5.22;;;9.00;99.90;;;;;;5014175;28;20061;-70
2023/03/31 02:40:44;;;;;;;16.77;5.38;;;9.10;99.90;;;;;;4997338;28;20393;-70
2023/03/31 02:43:12;;;;;;;16.15;4.13;;;9.10;99.90;;;;;;5014434;28;20088;-69
2023/03/31 02:45:45;;;;;;;26.35;6.13;;;9.10;99.90;;;;;;4996424;28;20169;-70
2023/03/31 02:48:17;;;;;;;23.83;4.47;;;9.20;99.90;;;;;;5014296;28;20050;-70
2023/03/31 02:51:30;;;;;;;17.63;4.75;;;9.20;99.90;;;;;;4996696;28;20042;-69
2023/03/31 02:54:20;;;;;;;22.42;5.03;;;9.20;99.90;;;;;;5014316;28;20050;-69
2023/03/31 02:57:05;;;;;;;18.80;3.72;;;9.30;99.90;;;;;;4977811;28;20058;-70
2023/03/31 02:59:49;;;;;;;19.50;4.47;;;9.30;99.90;;;;;;4976690;28;20050;-69
2023/03/31 03:02:25;;;;;;;16.48;4.05;;;9.30;99.90;;;;;;4976088;28;20132;-69
2023/03/31 03:05:08;;;;;;;15.93;3.70;;;9.40;99.90;;;;;;4993995;28;20042;-69
2023/03/31 03:07:41;;;;;;;20.23;4.55;;;9.40;99.90;;;;;;4992597;28;20101;-70
2023/03/31 03:10:10;;;;;;;19.77;4.57;;;9.40;99.90;;;;;;5012498;28;20038;-71
2023/03/31 03:12:43;;;;;;;17.10;4.22;;;9.40;99.90;;;;;;4996157;28;20045;-71
2023/03/31 03:15:14;;;;;;;18.65;4.35;;;9.30;99.90;;;;;;5014165;28;20083;-70
2023/03/31 03:17:44;;;;;;;20.95;5.07;;;9.30;99.90;;;;;;4996849;28;20053;-70
2023/03/31 03:20:12;;;;;;;15.32;4.50;;;9.30;99.90;;;;;;5013129;28;20104;-70
2023/03/31 03:22:40;;;;;;;24.83;4.63;;;9.30;99.90;;;;;;5013571;28;20053;-70
2023/03/31 03:25:09;;;;;;;12.65;3.97;;;9.20;99.90;;;;;;5014011;28;20084;-71
2023/03/31 03:27:36;;;;;;;25.65;4.45;;;9.20;99.90;;;;;;4995737;28;20412;-70
2023/03/31 03:30:04;;;;;;;14.27;3.97;;;9.20;99.90;;;;;;5013617;28;20046;-70
2023/03/31 03:32:33;;;;;;;21.90;4.80;;;9.20;99.90;;;;;;4977227;28;20536;-71
2023/03/31 03:35:00;;;;;;;13.85;4.28;;;9.20;99.90;;;;;;4994025;28;20090;-68
2023/03/31 03:37:27;;;;;;;16.92;3.92;;;9.20;99.90;;;;;;4994463;28;20058;-70
2023/03/31 03:39:54;;;;;;;18.15;4.97;;;9.20;99.90;;;;;;4994613;28;20049;-70
2023/03/31 03:42:21;;;;;;;12.88;3.83;;;9.20;99.90;;;;;;4976874;28;20425;-68
2023/03/31 03:44:48;;;;;;;13.60;4.07;;;9.20;99.90;;;;;;4994642;28;20050;-68
2023/03/31 03:47:15;;;;;;;12.82;3.75;;;9.20;99.90;;;;;;4977569;28;20054;-68
2023/03/31 03:49:43;;;;;;;13.52;3.72;;;9.20;99.90;;;;;;4976847;28;20038;-68
2023/03/31 03:52:10;;;;;;;13.43;3.35;;;9.20;99.90;;;;;;4977168;28;20054;-69
2023/03/31 03:54:37;;;;;;;10.65;3.50;;;9.20;99.90;;;;;;4992868;28;20150;-69
2023/03/31 03:57:05;;;;;;;12.13;4.35;;;9.20;99.90;;;;;;5011665;28;20049;-70
2023/03/31 03:59:32;;;;;;;18.85;4.30;;;9.20;99.90;;;;;;5013417;28;20065;-71
2023/03/31 04:01:59;;;;;;;11.43;3.60;;;9.20;99.90;;;;;;5012400;28;20116;-70
2023/03/31 04:04:26;;;;;;;20.67;4.38;;;9.30;99.90;;;;;;4995460;28;20046;-70
2023/03/31 04:06:54;;;;;;;11.88;3.58;;;9.30;99.90;;;;;;4995682;28;20100;-69
2023/03/31 04:09:21;;;;;;;17.30;4.43;;;9.30;99.90;;;;;;4994898;28;20126;-68
2023/03/31 04:11:48;;;;;;;13.35;3.58;;;9.30;99.90;;;;;;4995028;28;20513;-68
2023/03/31 04:14:15;;;;;;;12.13;3.53;;;9.30;99.90;;;;;;4995489;28;20112;-68
2023/03/31 04:16:45;;;;;;;12.80;4.38;;;9.30;99.90;;;;;;4994674;28;20092;-69
2023/03/31 04:19:12;;;;;;;10.33;3.80;;;9.30;99.90;;;;;;4995551;28;20096;-68
2023/03/31 04:21:44;;;;;;;11.90;3.80;;;9.40;99.90;;;;;;4995434;28;20376;-68
2023/03/31 04:24:14;;;;;;;16.08;4.75;;;9.40;99.90;;;;;;4994647;28;20106;-69
2023/03/31 04:26:42;;;;;;;11.60;4.60;;;9.40;99.90;;;;;;5012449;28;20042;-70
2023/03/31 04:29:11;;;;;;;13.55;4.55;;;9.40;99.90;;;;;;4995348;28;20138;-70
2023/03/31 04:31:41;;;;;;;14.52;4.65;;;9.40;99.90;;;;;;4994562;28;20045;-71
2023/03/31 04:34:12;;;;;;;15.57;5.28;;;9.40;99.90;;;;;;5008071;28;20064;-70
2023/03/31 04:36:41;;;;;;;;;;;9.50;99.90;;;;;;4978006;28;20129;-69
2023/03/31 04:39:09;;;;;;;13.90;4.57;;;9.40;99.90;;;;;;4993184;28;20017;-70
2023/03/31 04:41:38;;;;;;;13.60;4.90;;;9.40;99.90;;;;;;4990749;28;20057;-71
2023/03/31 04:44:05;;;;;;;25.33;5.70;;;9.40;99.90;;;;;;4990472;28;20046;-71
2023/03/31 04:46:33;;;;;;;13.70;5.55;;;9.40;99.90;;;;;;4993442;28;20042;-70
2023/03/31 04:49:01;;;;;;;14.45;5.47;;;9.40;99.90;;;;;;4994231;28;20050;-71
2023/03/31 04:51:29;;;;;;;15.98;6.20;;;9.40;99.90;;;;;;4993964;28;20053;-71
2023/03/31 04:53:56;;;;;;;15.07;5.85;;;9.40;99.90;;;;;;4991396;28;20046;-72
2023/03/31 04:56:23;;;;;;;12.02;5.97;;;9.40;99.90;;;;;;4990599;28;20570;-70
2023/03/31 04:58:51;;;;;;;15.63;5.68;;;9.40;99.90;;;;;;4980395;28;20054;-70
2023/03/31 05:01:18;;;;;;;15.18;7.05;;;9.40;99.90;;;;;;4964239;28;20050;-72
2023/03/31 05:03:46;;;;;;;16.48;6.88;;;9.40;99.90;;;;;;4980137;28;20047;-71
2023/03/31 05:06:14;;;;;;;17.60;5.97;;;9.40;99.90;;;;;;4966489;28;20050;-70
2023/03/31 05:08:41;;;;;;;13.13;5.72;;;9.40;99.90;;;;;;4977859;28;20141;-70
2023/03/31 05:11:08;;;;;;;17.48;6.13;;;9.40;99.90;;;;;;4969106;28;20046;-70
2023/03/31 05:13:35;;;;;;;20.17;6.63;;;9.40;99.90;;;;;;4985816;28;20409;-70
2023/03/31 05:16:08;;;;;;;15.93;7.32;;;9.40;99.90;;;;;;4969498;28;20065;-71
2023/03/31 05:18:36;;;;;;;13.73;7.30;;;9.40;99.90;;;;;;4965254;28;20059;-69
2023/03/31 05:21:11;;;;;;;14.05;6.78;;;9.40;99.90;;;;;;4980180;28;20476;-69
2023/03/31 05:23:38;;;;;;;18.17;6.50;;;9.40;99.90;;;;;;4971331;28;20061;-71
2023/03/31 05:26:06;;;;;;;13.05;6.63;;;9.40;99.90;;;;;;4968172;28;20098;-69
2023/03/31 05:28:34;;;;;;;19.50;7.18;;;9.40;99.90;;;;;;4989086;28;20093;-70
2023/03/31 05:31:01;;;;;;;14.98;6.65;;;9.40;99.90;;;;;;4967054;28;20093;-70
2023/03/31 05:33:30;;;;;;;16.35;6.15;;;9.60;99.90;;;;;;4983344;28;20054;-70
2023/03/31 05:35:58;;;;;;;17.23;6.63;;;9.60;99.90;;;;;;4959808;28;20054;-70
2023/03/31 05:38:27;;;;;;;16.23;6.35;;;9.50;99.90;;;;;;4965976;28;20082;-72
2023/03/31 05:40:55;;;;;;;13.45;6.35;;;9.50;99.90;;;;;;4959872;28;20047;-71
2023/03/31 05:43:22;;;;;;;16.63;6.35;;;9.50;99.90;;;;;;4977844;28;20054;-69
2023/03/31 05:45:49;;;;;;;18.55;6.57;;;9.60;99.90;;;;;;4965362;28;20058;-70
2023/03/31 05:48:16;;;;;;;12.88;5.65;;;9.60;99.90;;;;;;4968295;28;20138;-70
2023/03/31 05:50:44;;;;;;;12.88;5.43;;;9.60;99.90;;;;;;4945330;28;20154;-69
2023/03/31 05:53:11;;;;;;;11.55;6.00;;;9.60;99.90;;;;;;4968323;28;20129;-69
2023/03/31 05:55:39;;;;;;;15.85;5.90;;;9.60;99.90;;;;;;4986117;28;20070;-71
2023/03/31 05:58:07;;;;;;;12.68;5.43;;;9.60;99.90;;;;;;4992130;28;20468;-69
2023/03/31 06:00:34;;;;;;;14.00;5.65;;;9.60;99.90;;;;;;4978153;28;20054;-70
2023/03/31 06:03:01;;;;;;;13.00;5.75;;;9.60;99.90;;;;;;4992709;28;20046;-70
2023/03/31 06:05:29;;;;;;;9.63;4.88;;;9.60;99.90;;;;;;4996236;28;20046;-70
2023/03/31 06:07:58;;;;;;;12.02;4.75;;;9.70;99.90;;;;;;4978126;28;20046;-70
2023/03/31 06:10:25;;;;;;;11.73;4.25;;;9.70;99.90;;;;;;4994405;28;20058;-70
2023/03/31 06:12:52;;;;;;;15.57;5.05;;;9.70;99.90;;;;;;4995608;28;20062;-70
2023/03/31 06:15:19;;;;;;;14.32;4.63;;;9.70;99.90;;;;;;4993349;28;20054;-69
2023/03/31 06:17:45;;;;;;;14.65;4.63;;;9.70;99.90;;;;;;5006479;28;20049;-69
2023/03/31 06:20:13;;;;;;;8.02;4.28;;;9.70;99.90;;;;;;5015400;28;20119;-71
2023/03/31 06:22:39;;;;;;;15.98;4.50;;;9.70;99.90;;;;;;4996352;28;20509;-71
2023/03/31 06:25:09;;;;;;;9.02;4.45;;;9.70;99.90;;;;;;4984201;28;20054;-70
2023/03/31 06:27:36;;;;;;;12.02;4.18;;;9.70;99.90;;;;;;4978322;28;20054;-70
2023/03/31 06:30:03;;;;;;;10.63;4.05;;;9.70;99.90;;;;;;4993960;28;20050;-70
2023/03/31 06:32:30;;;;;;;11.25;4.78;;;9.70;99.90;;;;;;4979871;28;20730;-70
2023/03/31 06:34:57;;;;;;;12.23;4.35;;;9.70;99.90;;;;;;4982077;28;20057;-70
2023/03/31 06:37:24;;;;;;;13.40;4.55;;;9.70;99.90;;;;;;4978518;28;20054;-70
2023/03/31 06:39:52;;;;;;;14.68;4.55;;;9.70;99.90;;;;;;4995178;28;20092;-84
2023/03/31 06:42:20;;;;;;;9.95;4.50;;;9.70;99.90;;;;;;4978158;28;20501;-69
2023/03/31 06:44:47;;;;;;;11.45;4.25;;;9.70;99.90;;;;;;4993820;28;20049;-70
2023/03/31 06:47:14;;;;;;;8.18;3.70;;;9.70;99.90;;;;;;4994983;28;20104;-68
2023/03/31 06:49:41;;;;;;;8.32;3.42;;;9.80;99.90;;;;;;4994785;28;20082;-68
2023/03/31 06:52:08;;;;;;;12.30;4.28;;;9.80;99.90;;;;;;4991162;28;20501;-68
2023/03/31 06:54:35;;;;;;;12.80;4.18;;;9.80;99.90;;;;;;4977657;28;20050;-68
2023/03/31 06:57:02;;;;;;;13.27;4.65;;;9.80;99.90;;;;;;4977548;28;20061;-69
2023/03/31 06:59:30;;;;;;;13.68;4.60;;;9.80;99.90;;;;;;4977044;28;20061;-69
2023/03/31 07:01:57;;;;;;;10.93;4.18;;;9.70;99.90;;;;;;4995299;28;20038;-68
2023/03/31 07:04:24;;;;;;;7.95;4.63;;;9.70;99.90;;;;;;4977418;28;20057;-69
2023/03/31 07:06:51;;;;;;;8.15;3.80;;;9.80;99.90;;;;;;4977103;28;20498;-70
2023/03/31 07:09:20;;;;;;;6.72;4.07;;;9.70;99.90;;;;;;4990466;28;20058;-68
2023/03/31 07:11:47;;;;;;;8.20;4.50;;;9.70;99.90;;;;;;4994636;28;20457;-69
2023/03/31 07:14:14;;;;;;;7.85;4.05;;;9.70;99.90;;;;;;4995601;28;20057;-67
2023/03/31 07:16:42;;;;;;;11.85;4.07;;;9.70;99.90;;;;;;4996782;28;20050;-68
2023/03/31 07:19:09;;;;;;;9.40;3.97;;;9.80;99.90;;;;;;4995908;28;20385;-67
2023/03/31 07:21:36;;;;;;;9.32;4.10;;;9.80;99.90;;;;;;4993667;28;20046;-68
2023/03/31 07:24:04;;;;;;;11.63;4.25;;;9.80;99.90;;;;;;4977335;28;20498;-69
2023/03/31 07:26:31;;;;;;;7.70;3.60;;;9.80;99.90;;;;;;4993565;28;20125;-67
2023/03/31 07:28:58;;;;;;;12.02;4.63;;;9.80;99.90;;;;;;4977491;28;20498;-68
2023/03/31 07:31:25;;;;;;;9.65;4.15;;;9.80;99.90;;;;;;4977020;28;20057;-69
2023/03/31 07:33:53;;;;;;;8.05;3.92;;;9.80;99.90;;;;;;4976735;28;20050;-70
2023/03/31 07:36:20;;;;;;;7.70;3.75;;;9.80;99.90;;;;;;4984030;28;20066;-70
2023/03/31 07:38:48;;;;;;;10.43;3.40;;;9.80;99.90;;;;;;4996086;28;20050;-71
2023/03/31 07:41:17;;;;;;;10.23;4.43;;;9.80;99.90;;;;;;5012118;28;20490;-70
2023/03/31 07:43:45;;;;;;;6.50;3.65;;;9.90;99.90;;;;;;4995749;28;20046;-69
2023/03/31 07:46:17;;;;;;;9.40;3.60;;;9.90;99.90;;;;;;4995856;28;20046;-69
2023/03/31 07:48:45;;;;;;;8.52;3.50;;;9.90;99.90;;;;;;5012344;28;20501;-69
2023/03/31 07:51:14;;;;;;;9.38;3.83;;;9.90;99.90;;;;;;4986533;28;20042;-70
2023/03/31 07:53:41;;;;;;;8.95;3.58;;;9.90;99.90;;;;;;4993981;28;20050;-71
2023/03/31 07:56:08;;;;;;;7.38;3.17;;;9.90;99.90;;;;;;4975633;28;20077;-70
2023/03/31 07:58:35;;;;;;;8.15;3.58;;;9.90;99.90;;;;;;4993228;28;20042;-70
2023/03/31 08:01:02;;;;;;;12.13;4.22;;;9.90;99.90;;;;;;4993090;28;20126;-71
2023/03/31 08:03:30;;;;;;;9.88;3.80;;;9.90;99.90;;;;;;4993528;28;20050;-70
2023/03/31 08:05:58;;;;;;;12.05;3.80;;;9.90;99.90;;;;;;4990137;28;20142;-68
2023/03/31 08:08:26;;;;;;;7.70;3.17;;;9.90;99.90;;;;;;4975253;28;20502;-69
2023/03/31 08:10:53;;;;;;;7.57;3.40;;;9.90;99.90;;;;;;4991453;28;20541;-68
2023/03/31 08:13:20;;;;;;;8.18;3.08;;;9.90;99.90;;;;;;4992099;28;20117;-70
2023/03/31 08:15:47;;;;;;;6.47;2.92;;;9.90;99.90;;;;;;4991735;28;20105;-70
2023/03/31 08:18:14;;;;;;;11.32;3.00;;;9.90;99.90;;;;;;4974212;28;20054;-70
2023/03/31 08:20:41;;;;;;;10.32;3.28;;;9.90;99.90;;;;;;4992429;28;20049;-70
2023/03/31 08:23:10;;;;;;;9.27;3.10;;;9.90;99.90;;;;;;4990551;28;20502;-71
2023/03/31 08:25:38;;;;;;;6.35;3.13;;;9.90;99.90;;;;;;4971472;28;20054;-70
2023/03/31 08:28:05;;;;;;;8.90;3.65;;;9.90;99.90;;;;;;4986922;28;20054;-70
2023/03/31 08:30:33;;;;;;;4.70;2.80;;;9.90;99.90;;;;;;4969020;28;20125;-70
2023/03/31 08:33:00;;;;;;;9.68;3.15;;;10.00;99.90;;;;;;4977399;28;20529;-69
2023/03/31 08:35:27;;;;;;;6.43;3.00;;;9.90;99.90;;;;;;4976252;28;20050;-70
2023/03/31 08:37:54;;;;;;;6.43;2.63;;;10.00;99.90;;;;;;4975503;28;20081;-70
2023/03/31 08:40:25;;;;;;;5.32;2.63;;;10.00;99.90;;;;;;4992846;28;20049;-70
2023/03/31 08:42:56;;;;;;;7.50;3.72;;;10.00;99.90;;;;;;4993202;28;20046;-68
2023/03/31 08:45:27;;;;;;;6.15;2.55;;;10.00;99.90;;;;;;5011118;28;20108;-70
2023/03/31 08:47:59;;;;;;;9.38;3.67;;;10.00;99.90;;;;;;5012255;28;20058;-70
2023/03/31 08:50:29;;;;;;;6.85;2.85;;;10.00;99.90;;;;;;4993485;28;20053;-70
2023/03/31 08:52:59;;;;;;;;;;;10.10;99.90;;;;;;5012488;28;20045;-72
2023/03/31 08:55:31;;;;;;;5.57;3.38;;;10.00;99.90;;;;;;5011085;28;19928;-71
2023/03/31 08:58:06;;;;;;;6.63;2.92;;;10.00;99.90;;;;;;4991689;28;20072;-71
2023/03/31 09:00:42;;;;;;;8.90;4.00;;;10.10;99.90;;;;;;4983703;28;20058;-71
2023/03/31 09:03:18;;;;;;;10.95;3.45;;;10.10;99.90;;;;;;4975805;28;20510;-71
2023/03/31 09:05:57;;;;;;;6.70;3.97;;;10.10;99.90;;;;;;4991654;28;20054;-71
2023/03/31 09:08:33;;;;;;;13.80;3.88;;;10.20;99.90;;;;;;4997462;28;20042;-71
2023/03/31 09:11:13;;;;;;;6.30;3.45;;;10.20;99.90;;;;;;4975592;28;20442;-70
2023/03/31 09:14:07;;;;;;;8.23;3.22;;;10.30;99.90;;;;;;4992623;28;20043;-72
2023/03/31 09:16:41;;;;;;;8.73;3.80;;;10.30;99.90;;;;;;4991492;28;20047;-71
2023/03/31 09:19:14;;;;;;;8.18;3.70;;;10.40;99.90;;;;;;4975345;28;20061;-70
2023/03/31 09:21:45;;;;;;;9.32;3.55;;;10.30;99.90;;;;;;4976044;28;20042;-70
2023/03/31 09:24:16;;;;;;;9.25;4.25;;;10.40;99.90;;;;;;4990445;28;20065;-71
2023/03/31 09:26:46;;;;;;;12.60;3.80;;;10.40;99.90;;;;;;4978409;28;20057;-72
2023/03/31 09:29:18;;;;;;;10.07;3.83;;;10.40;99.90;;;;;;4980220;28;20058;-70
2023/03/31 09:31:45;;;;;;;9.82;4.30;;;10.50;99.90;;;;;;4989917;28;20364;-70
2023/03/31 09:34:19;;;;;;;12.43;3.92;;;10.50;99.90;;;;;;4990026;28;20054;-71
2023/03/31 09:36:46;;;;;;;8.35;3.53;;;10.60;99.90;;;;;;5000388;28;20056;-71
2023/03/31 09:39:14;;;;;;;8.40;4.05;;;10.60;99.90;;;;;;4999538;28;20451;-72
2023/03/31 09:41:46;;;;;;;6.85;3.10;;;10.70;99.90;;;;;;4985127;28;20042;-71
2023/03/31 09:44:27;;;;;;;8.43;3.53;;;10.70;99.90;;;;;;4998125;28;20545;-71
2023/03/31 09:46:55;;;;;;;6.75;3.50;;;10.80;99.90;;;;;;4996470;28;20046;-71
2023/03/31 09:49:28;;;;;;;6.97;3.38;;;10.80;99.90;;;;;;4999555;28;20506;-70
2023/03/31 09:52:03;;;;;;;7.55;3.53;;;10.90;99.90;;;;;;4981086;28;20078;-70
2023/03/31 09:54:36;;;;;;;10.65;3.80;;;11.00;99.90;;;;;;4980575;28;20054;-71
2023/03/31 09:57:14;;;;;;;6.80;3.25;;;11.10;99.90;;;;;;4994274;28;20054;-71
2023/03/31 09:59:44;;;;;;;11.10;4.03;;;11.30;99.90;;;;;;4997476;28;20050;-71
2023/03/31 10:02:36;;;;;;;11.40;3.38;;;11.40;99.90;;;;;;4999408;28;20046;-71
2023/03/31 10:05:05;;;;;;;9.82;3.20;;;11.50;99.90;;;;;;4996857;28;20055;-70
2023/03/31 10:07:33;;;;;;;5.72;3.55;;;11.60;99.90;;;;;;4984377;28;20053;-70
2023/03/31 10:10:01;;;;;;;6.03;2.75;;;11.60;99.90;;;;;;4997736;28;20057;-71
2023/03/31 10:12:29;;;;;;;6.75;2.80;;;11.70;99.90;;;;;;4980604;28;20054;-71
2023/03/31 10:15:17;;;;;;;7.10;3.10;;;11.70;99.90;;;;;;4997636;28;20125;-70
2023/03/31 10:17:46;;;;;;;8.43;3.38;;;11.80;99.90;;;;;;4997267;28;20410;-70
2023/03/31 10:20:27;;;;;;;5.82;2.40;;;11.90;99.90;;;;;;5013849;28;20126;-71
2023/03/31 10:22:54;;;;;;;5.32;2.22;;;11.90;99.90;;;;;;5001181;28;20100;-70
2023/03/31 10:25:24;;;;;;;6.20;2.90;;;11.80;99.90;;;;;;4979400;28;20825;-70
2023/03/31 10:27:53;;;;;;;8.20;3.60;;;11.70;99.90;;;;;;4978629;28;20054;-70
2023/03/31 10:30:24;;;;;;;5.28;2.45;;;11.60;99.90;;;;;;4981137;28;20042;-69
2023/03/31 10:32:52;;;;;;;5.10;2.33;;;11.50;99.90;;;;;;4998154;28;20046;-70
2023/03/31 10:35:26;;;;;;;5.28;2.42;;;11.40;99.90;;;;;;4981254;28;20097;-70
2023/03/31 10:37:57;;;;;;;4.20;2.85;;;11.30;99.90;;;;;;4989617;28;20506;-70
2023/03/31 10:40:26;;;;;;;7.43;2.67;;;11.30;99.90;;;;;;4979493;28;20113;-70
2023/03/31 10:43:02;;;;;;;5.60;2.72;;;11.30;99.90;;;;;;4993051;28;20108;-70
2023/03/31 10:45:36;;;;;;;4.80;2.70;;;11.30;99.90;;;;;;4996571;28;20065;-71
2023/03/31 10:48:04;;;;;;;5.03;2.60;;;11.40;99.90;;;;;;4976710;28;20054;-69
2023/03/31 10:50:33;;;;;;;6.82;2.38;;;11.60;99.90;;;;;;4993112;28;20559;-70
2023/03/31 10:53:05;;;;;;;6.70;2.38;;;11.70;99.90;;;;;;4975356;28;20046;-70
2023/03/31 10:55:39;;;;;;;6.65;2.45;;;11.80;99.90;;;;;;4976007;28;20073;-71
2023/03/31 10:58:21;;;;;;;4.15;2.15;;;12.00;99.90;;;;;;4976756;28;20054;-71
2023/03/31 11:01:04;;;;;;;4.85;2.28;;;12.00;99.90;;;;;;4977165;28;20058;-71
2023/03/31 11:04:08;;;;;;;7.60;2.35;;;12.20;99.90;;;;;;4995404;28;20045;-71
2023/03/31 11:06:49;;;;;;;8.48;2.90;;;12.30;99.90;;;;;;4970273;28;20055;-71
2023/03/31 11:09:34;;;;;;;6.00;2.78;;;12.40;99.90;;;;;;4982849;28;20153;-70
2023/03/31 11:12:12;;;;;;;7.10;2.60;;;12.40;99.90;;;;;;4974689;28;20425;-70
2023/03/31 11:14:52;;;;;;;5.07;2.35;;;12.50;99.90;;;;;;4993877;28;20050;-70
2023/03/31 11:17:34;;;;;;;7.95;2.45;;;12.60;99.90;;;;;;4995087;28;20065;-70
2023/03/31 11:20:12;;;;;;;5.20;2.40;;;12.80;99.90;;;;;;4989337;28;20057;-70
2023/03/31 11:22:47;;;;;;;5.85;2.22;;;12.90;99.90;;;;;;4980975;28;20137;-71
2023/03/31 11:25:25;;;;;;;8.95;2.70;;;13.20;99.90;;;;;;5009125;28;20585;-71
2023/03/31 11:28:36;;;;;;;7.20;2.90;;;13.40;99.90;;;;;;4985264;28;20057;-71
2023/03/31 11:31:15;;;;;;;5.60;3.03;;;13.70;99.90;;;;;;4974687;28;20046;-70
2023/03/31 11:33:55;;;;;;;4.97;2.40;;;14.00;99.90;;;;;;4989099;28;20096;-71
2023/03/31 11:36:48;;;;;;;4.20;2.28;;;14.20;99.90;;;;;;4976634;28;20426;-70
2023/03/31 11:39:33;;;;;;;8.75;2.67;;;14.50;99.90;;;;;;4975580;28;20068;-71
2023/03/31 11:42:02;;;;;;;4.70;2.30;;;14.70;99.90;;;;;;4976908;28;20049;-70
2023/03/31 11:44:39;;;;;;;6.15;2.33;;;14.60;99.90;;;;;;4993641;28;20050;-72
2023/03/31 11:47:10;;;;;;;7.85;2.40;;;14.60;99.90;;;;;;4975911;28;20483;-72
2023/03/31 11:49:42;;;;;;;6.20;2.47;;;14.40;99.90;;;;;;4976813;28;20050;-69
2023/03/31 11:52:14;;;;;;;5.90;2.45;;;14.30;99.90;;;;;;4975775;28;20053;-70
2023/03/31 11:54:53;;;;;;;6.97;3.33;;;14.20;99.90;;;;;;4984873;28;20046;-70
2023/03/31 11:57:27;;;;;;;5.45;2.15;;;14.20;99.90;;;;;;4990955;28;20113;-71
2023/03/31 11:59:57;;;;;;;6.82;2.40;;;14.00;99.90;;;;;;4993075;28;20050;-71
2023/03/31 12:02:33;;;;;;;7.55;2.63;;;13.90;99.90;;;;;;4977051;28;20491;-70
2023/03/31 12:05:05;;;;;;;4.28;1.88;;;13.60;99.90;;;;;;4992866;28;20066;-70
2023/03/31 12:07:38;;;;;;;5.45;1.90;;;13.40;99.90;;;;;;4975146;28;20096;-71
2023/03/31 12:10:15;;;;;;;10.02;2.13;;;13.30;99.90;;;;;;4991937;28;20058;-71
2023/03/31 12:12:46;;;;;;;5.85;2.10;;;13.10;99.90;;;;;;4992945;28;20042;-70
2023/03/31 12:15:19;;;;;;;8.43;2.05;;;12.90;99.90;;;;;;4991775;28;20050;-70
2023/03/31 12:17:53;;;;;;;7.45;2.65;;;12.70;99.90;;;;;;4991767;28;20046;-70
2023/03/31 12:20:29;;;;;;;6.85;2.90;;;12.60;99.90;;;;;;4991867;28;20043;-70
2023/03/31 12:22:58;;;;;;;9.55;2.60;;;12.50;99.90;;;;;;4992039;28;20049;-70
2023/03/31 12:25:28;;;;;;;12.45;3.28;;;12.40;99.90;;;;;;4975670;28;20498;-70
2023/03/31 12:27:56;;;;;;;7.65;2.72;;;12.30;99.90;;;;;;4989230;28;20100;-70
2023/03/31 12:30:30;;;;;;;8.43;2.90;;;12.30;99.90;;;;;;4975639;28;20457;-71
2023/03/31 12:33:02;;;;;;;6.13;2.22;;;12.20;99.90;;;;;;4991614;28;20520;-71
2023/03/31 12:35:41;;;;;;;11.40;3.33;;;12.20;99.90;;;;;;4973463;28;20058;-69
2023/03/31 12:38:19;;;;;;;11.27;3.90;;;12.30;99.90;;;;;;4991873;28;20055;-70
2023/03/31 12:41:00;;;;;;;5.25;2.95;;;12.40;99.90;;;;;;4992968;28;20422;-71
2023/03/31 12:43:42;;;;;;;8.40;2.92;;;12.70;99.90;;;;;;4979368;28;20078;-70
2023/03/31 12:46:23;;;;;;;7.72;2.90;;;12.90;99.90;;;;;;4992088;28;20046;-70
2023/03/31 12:49:19;;;;;;;9.95;2.35;;;13.10;99.90;;;;;;4984119;28;20054;-71
2023/03/31 12:51:59;;;;;;;8.20;2.35;;;13.70;99.90;;;;;;4986892;28;20569;-70
2023/03/31 12:55:02;;;;;;;6.07;2.03;;;14.50;99.90;;;;;;4992609;28;20074;-70
2023/03/31 12:57:29;;;;;;;8.02;2.15;;;14.80;99.90;;;;;;4922129;28;20081;-70
2023/03/31 13:00:19;;;;;;;6.50;3.13;;;14.80;99.90;;;;;;4977700;28;20117;-71
2023/03/31 13:02:46;;;;;;;;;;;14.60;99.90;;;;;;4973012;28;20118;-71
2023/03/31 13:05:45;;;;;;;8.40;2.17;;;14.60;99.90;;;;;;4970715;28;19925;-70
2023/03/31 13:08:53;;;;;;;9.30;2.25;;;14.80;99.90;;;;;;4964296;28;20052;-70
2023/03/31 13:11:34;;;;;;;7.63;2.67;;;14.70;99.90;;;;;;4990515;28;20092;-70
2023/03/31 13:14:02;;;;;;;;;;;14.70;99.90;;;;;;4992780;28;20089;-69